createdAt,value
2022-09-26T00:01:26.936Z,100487.75
2022-09-26T00:03:56.776Z,100478.81
2022-09-26T00:06:25.208Z,100472.94
2022-09-26T00:08:54.144Z,100476.75
2022-09-26T00:11:24.678Z,100467.06
2022-09-26T00:13:53.769Z,100464.13
2022-09-26T00:16:23.570Z,100456.16
2022-09-26T00:18:51.809Z,100453.44
2022-09-26T00:21:20.527Z,100452.16
2022-09-26T00:23:48.571Z,100440.47
2022-09-26T00:26:17.742Z,100437.66
2022-09-26T00:28:45.718Z,100434.25
2022-09-26T00:31:15.805Z,100425.22
2022-09-26T00:33:45.404Z,100428.25
2022-09-26T00:36:13.353Z,100421.81
2022-09-26T00:38:41.291Z,100420.69
2022-09-26T00:41:10.069Z,100416.22
2022-09-26T00:43:39.415Z,100411.72
2022-09-26T00:46:15.146Z,100406.59
2022-09-26T00:48:45.548Z,100405.84
2022-09-26T00:51:13.600Z,100415.84
2022-09-26T00:53:44.989Z,100408.44
2022-09-26T00:56:17.106Z,100406.00
2022-09-26T00:58:47.330Z,100401.72
2022-09-26T01:01:15.913Z,100400.59
2022-09-26T01:03:45.663Z,100396.16
2022-09-26T01:06:14.029Z,100400.16
2022-09-26T01:08:45.244Z,100391.06
2022-09-26T01:11:17.253Z,100389.78
2022-09-26T01:13:46.383Z,100381.94
2022-09-26T01:16:14.507Z,100379.41
2022-09-26T01:18:42.627Z,100371.72
2022-09-26T01:21:29.638Z,100371.03
2022-09-26T01:24:22.510Z,100360.91
2022-09-26T01:27:14.214Z,100356.06
2022-09-26T01:30:10.873Z,100349.84
2022-09-26T01:33:02.522Z,100352.25
2022-09-26T01:36:04.217Z,100350.81
2022-09-26T01:38:42.015Z,100340.72
2022-09-26T01:41:25.639Z,100337.47
2022-09-26T01:43:57.907Z,100331.94
2022-09-26T01:46:32.156Z,100329.78
2022-09-26T01:49:06.806Z,100331.91
2022-09-26T01:51:38.601Z,100324.38
2022-09-26T01:54:10.285Z,100323.53
2022-09-26T01:56:40.538Z,100317.25
2022-09-26T01:59:11.456Z,100326.22
2022-09-26T02:01:44.327Z,100320.41
2022-09-26T02:04:13.553Z,100317.97
2022-09-26T02:06:44.729Z,100318.41
2022-09-26T02:09:16.128Z,100319.97
2022-09-26T02:11:45.749Z,100307.75
2022-09-26T02:14:16.987Z,100303.09
2022-09-26T02:16:49.024Z,100298.69
2022-09-26T02:19:20.794Z,100292.69
2022-09-26T02:21:48.889Z,100290.56
2022-09-26T02:24:16.803Z,100288.84
2022-09-26T02:26:45.177Z,100279.88
2022-09-26T02:29:14.482Z,100267.22
2022-09-26T02:31:49.251Z,100266.94
2022-09-26T02:34:17.225Z,100260.34
2022-09-26T02:36:46.330Z,100261.81
2022-09-26T02:39:14.729Z,100252.56
2022-09-26T02:41:49.796Z,100247.84
2022-09-26T02:44:32.714Z,100247.59
2022-09-26T02:47:14.407Z,100251.41
2022-09-26T02:49:57.821Z,100241.59
2022-09-26T02:52:36.466Z,100235.91
2022-09-26T02:55:20.494Z,100242.03
2022-09-26T02:57:54.350Z,100226.38
2022-09-26T03:00:24.518Z,100226.38
2022-09-26T03:02:58.261Z,100212.16
2022-09-26T03:05:28.066Z,100206.75
2022-09-26T03:07:58.966Z,100207.31
2022-09-26T03:10:28.388Z,100199.09
2022-09-26T03:12:57.760Z,100195.94
2022-09-26T03:15:26.225Z,100191.25
2022-09-26T03:17:56.256Z,100193.69
2022-09-26T03:20:24.838Z,100183.56
2022-09-26T03:22:53.034Z,100174.31
2022-09-26T03:25:24.050Z,100169.06
2022-09-26T03:27:52.383Z,100168.63
2022-09-26T03:30:21.305Z,100163.09
2022-09-26T03:32:49.350Z,100159.94
2022-09-26T03:35:19.018Z,100160.81
2022-09-26T03:37:47.906Z,100152.97
2022-09-26T03:40:15.965Z,100147.44
2022-09-26T03:42:44.053Z,100143.69
2022-09-26T03:45:12.462Z,100136.28
2022-09-26T03:47:41.957Z,100143.56
2022-09-26T03:50:10.814Z,100137.84
2022-09-26T03:52:40.138Z,100138.44
2022-09-26T03:55:08.563Z,100135.72
2022-09-26T03:57:36.470Z,100130.16
2022-09-26T04:00:07.674Z,100132.44
2022-09-26T04:02:35.951Z,100122.16
2022-09-26T04:05:04.019Z,100121.03
2022-09-26T04:07:32.152Z,100119.88
2022-09-26T04:10:01.408Z,100120.44
2022-09-26T04:12:29.295Z,100115.47
2022-09-26T04:14:57.242Z,100108.22
2022-09-26T04:17:25.295Z,100108.34
2022-09-26T04:19:53.191Z,100099.38
2022-09-26T04:22:21.121Z,100102.94
2022-09-26T04:24:49.047Z,100091.84
2022-09-26T04:27:18.702Z,100088.88
2022-09-26T04:29:46.808Z,100090.13
2022-09-26T04:32:14.958Z,100096.25
2022-09-26T04:34:42.855Z,100079.44
2022-09-26T04:37:12.116Z,100083.44
2022-09-26T04:39:40.026Z,100073.59
2022-09-26T04:42:07.914Z,100074.75
2022-09-26T04:44:37.244Z,100064.50
2022-09-26T04:47:05.342Z,100064.78
2022-09-26T04:49:33.215Z,100063.06
2022-09-26T04:52:01.195Z,100060.78
2022-09-26T04:54:29.190Z,100053.09
2022-09-26T04:56:57.047Z,100049.25
2022-09-26T04:59:24.932Z,100053.09
2022-09-26T05:01:54.936Z,100049.41
2022-09-26T05:04:27.415Z,100044.56
2022-09-26T05:06:57.844Z,100042.69
2022-09-26T05:09:26.034Z,100037.88
2022-09-26T05:11:54.011Z,100034.72
2022-09-26T05:14:21.981Z,100031.84
2022-09-26T05:16:49.991Z,100026.06
2022-09-26T05:19:21.432Z,100023.75
2022-09-26T05:21:49.319Z,100016.34
2022-09-26T05:24:34.714Z,100020.66
2022-09-26T05:27:02.923Z,100017.94
2022-09-26T05:29:30.831Z,100013.06
2022-09-26T05:31:59.878Z,100012.19
2022-09-26T05:34:29.216Z,100010.75
2022-09-26T05:36:57.200Z,100014.47
2022-09-26T05:39:42.859Z,100011.91
2022-09-26T05:42:11.000Z,100011.16
2022-09-26T05:44:39.894Z,100010.84
2022-09-26T05:47:08.647Z,100006.59
2022-09-26T05:49:38.403Z,100004.91
2022-09-26T05:52:06.549Z,100007.00
2022-09-26T05:54:34.459Z,100003.59
2022-09-26T05:57:02.318Z,100005.13
2022-09-26T05:59:30.251Z,100008.25
2022-09-26T06:01:58.651Z,100001.28
2022-09-26T06:04:26.580Z,100007.78
2022-09-26T06:06:55.854Z,100003.84
2022-09-26T06:09:24.130Z,100004.69
2022-09-26T06:11:52.049Z,100006.41
2022-09-26T06:14:21.112Z,100006.88
2022-09-26T06:16:49.089Z,99993.75
2022-09-26T06:19:20.698Z,100003.59
2022-09-26T06:21:50.846Z,99991.34
2022-09-26T06:24:20.329Z,99984.63
2022-09-26T06:26:48.211Z,99985.22
2022-09-26T06:29:16.299Z,99977.78
2022-09-26T06:31:44.837Z,99977.78
2022-09-26T06:34:13.357Z,99969.38
2022-09-26T06:36:41.267Z,99973.94
2022-09-26T06:39:09.388Z,99965.19
2022-09-26T06:41:38.786Z,99959.47
2022-09-26T06:44:06.790Z,99964.72
2022-09-26T06:46:35.428Z,99955.63
2022-09-26T06:49:03.353Z,99952.59
2022-09-26T06:51:31.939Z,99954.44
2022-09-26T06:54:00.486Z,99950.41
2022-09-26T06:56:28.464Z,99950.03
2022-09-26T06:58:58.047Z,99944.47
2022-09-26T07:01:26.102Z,99944.16
2022-09-26T07:03:54.626Z,99948.56
2022-09-26T07:06:22.597Z,99944.63
2022-09-26T07:09:12.014Z,99946.31
2022-09-26T07:12:10.074Z,99927.28
2022-09-26T07:14:30.237Z,99939.50
2022-09-26T07:16:58.186Z,99926.50
2022-09-26T07:19:26.136Z,99923.13
2022-09-26T07:21:55.020Z,99921.25
2022-09-26T07:24:22.943Z,99919.56
2022-09-26T07:26:51.268Z,99915.06
2022-09-26T07:29:19.454Z,99908.63
2022-09-26T07:31:48.809Z,99917.84
2022-09-26T07:34:18.578Z,99917.47
2022-09-26T07:36:47.619Z,99914.41
2022-09-26T07:39:15.805Z,99917.84
2022-09-26T07:41:46.026Z,99915.81
2022-09-26T07:47:21.108Z,99911.66
2022-09-26T07:50:06.619Z,99905.38
2022-09-26T07:52:34.564Z,99903.34
2022-09-26T07:55:02.473Z,99900.81
2022-09-26T07:57:33.187Z,99894.41
2022-09-26T08:00:01.173Z,99895.59
2022-09-26T08:02:34.405Z,99890.09
2022-09-26T08:05:04.024Z,99892.16
2022-09-26T08:07:37.043Z,99892.69
2022-09-26T08:10:07.067Z,99894.78
2022-09-26T08:12:38.653Z,99892.13
2022-09-26T08:15:07.918Z,99894.88
2022-09-26T08:17:38.241Z,99894.56
2022-09-26T08:20:07.251Z,99892.59
2022-09-26T08:22:35.467Z,99876.31
2022-09-26T08:25:04.259Z,99882.13
2022-09-26T08:27:33.736Z,99881.84
2022-09-26T08:30:03.261Z,99876.16
2022-09-26T08:32:32.350Z,99881.94
2022-09-26T08:35:01.711Z,99885.38
2022-09-26T08:37:31.165Z,99886.06
2022-09-26T08:40:00.829Z,99879.78
2022-09-26T08:42:38.862Z,99879.94
2022-09-26T08:45:47.489Z,99872.47
2022-09-26T08:48:27.310Z,99878.38
2022-09-26T08:51:01.489Z,99872.13
2022-09-26T08:53:33.315Z,99874.50
2022-09-26T08:56:02.437Z,99870.94
2022-09-26T08:58:36.211Z,99870.94
2022-09-26T09:01:05.981Z,99874.22
2022-09-26T09:03:37.461Z,99866.09
2022-09-26T09:06:08.878Z,99858.59
2022-09-26T09:08:38.976Z,99851.66
2022-09-26T09:11:13.968Z,99844.53
2022-09-26T09:13:57.138Z,99847.97
2022-09-26T09:16:44.774Z,99851.69
2022-09-26T09:19:17.687Z,99845.59
2022-09-26T09:22:00.461Z,99845.06
2022-09-26T09:24:43.034Z,99841.81
2022-09-26T09:30:17.879Z,99842.69
2022-09-26T09:32:49.614Z,99844.38
2022-09-26T09:35:20.635Z,99834.84
2022-09-26T09:37:51.941Z,99834.19
2022-09-26T09:40:26.693Z,99830.44
2022-09-26T09:42:56.757Z,99834.16
2022-09-26T09:45:29.757Z,99820.22
2022-09-26T09:47:58.240Z,99821.94
2022-09-26T09:50:37.361Z,99828.44
2022-09-26T09:53:14.947Z,99831.81
2022-09-26T09:55:48.991Z,99824.34
2022-09-26T09:58:35.929Z,99818.56
2022-09-26T10:01:09.854Z,99812.81
2022-09-26T10:03:42.006Z,99819.25
2022-09-26T10:06:44.525Z,99804.81
2022-09-26T10:09:39.329Z,99807.88
2022-09-26T10:11:54.214Z,99802.94
2022-09-26T10:14:28.842Z,99791.59
2022-09-26T10:17:18.629Z,99788.88
2022-09-26T10:19:46.533Z,99782.41
2022-09-26T10:22:24.188Z,99788.69
2022-09-26T10:24:55.077Z,99782.22
2022-09-26T10:27:32.142Z,99775.56
2022-09-26T10:30:01.327Z,99773.72
2022-09-26T10:32:30.315Z,99768.66
2022-09-26T10:35:07.802Z,99774.53
2022-09-26T10:37:38.094Z,99769.78
2022-09-26T10:40:41.596Z,99767.28
2022-09-26T10:43:31.889Z,99767.59
2022-09-26T10:46:10.322Z,99769.63
2022-09-26T10:48:48.246Z,99770.97
2022-09-26T10:51:24.473Z,99758.88
2022-09-26T10:53:53.759Z,99746.84
2022-09-26T10:56:27.501Z,99751.00
2022-09-26T10:58:58.394Z,99748.13
2022-09-26T11:01:30.212Z,99748.28
2022-09-26T11:04:01.629Z,99758.34
2022-09-26T11:06:32.554Z,99741.50
2022-09-26T11:09:03.386Z,99748.94
2022-09-26T11:11:36.825Z,99745.63
2022-09-26T11:14:07.758Z,99734.03
2022-09-26T11:16:52.120Z,99731.19
2022-09-26T11:19:44.638Z,99725.56
2022-09-26T11:22:16.406Z,99727.78
2022-09-26T11:24:48.578Z,99721.31
2022-09-26T11:27:23.849Z,99719.28
2022-09-26T11:29:55.618Z,99713.88
2022-09-26T11:32:29.258Z,99705.38
2022-09-26T11:35:02.323Z,99707.28
2022-09-26T11:37:42.240Z,99696.22
2022-09-26T11:40:29.922Z,99699.97
2022-09-26T11:43:11.117Z,99688.06
2022-09-26T11:45:52.069Z,99672.66
2022-09-26T11:48:39.261Z,99667.91
2022-09-26T11:51:15.826Z,99669.94
2022-09-26T11:53:56.386Z,99664.81
2022-09-26T11:56:44.596Z,99657.38
2022-09-26T11:59:29.702Z,99648.66
2022-09-26T12:02:15.748Z,99650.81
2022-09-26T12:04:54.345Z,99641.03
2022-09-26T12:07:26.226Z,99648.84
2022-09-26T12:10:07.365Z,99645.81
2022-09-26T12:12:41.893Z,99637.81
2022-09-26T12:15:20.357Z,99634.75
2022-09-26T12:17:56.850Z,99638.66
2022-09-26T12:20:31.695Z,99632.03
2022-09-26T12:23:03.934Z,99636.47
2022-09-26T12:25:37.478Z,99635.63
2022-09-26T12:28:17.331Z,99631.88
2022-09-26T12:30:54.018Z,99624.25
2022-09-26T12:33:52.946Z,99622.88
2022-09-26T12:36:28.150Z,99631.19
2022-09-26T12:39:06.057Z,99623.75
2022-09-26T12:41:45.842Z,99634.59
2022-09-26T12:44:43.362Z,99624.59
2022-09-26T12:47:22.109Z,99615.09
2022-09-26T12:50:08.131Z,99613.56
2022-09-26T12:53:02.414Z,99621.69
2022-09-26T12:55:36.040Z,99603.59
2022-09-26T12:58:12.494Z,99598.31
2022-09-26T13:00:43.964Z,99600.00
2022-09-26T13:03:35.542Z,99594.78
2022-09-26T13:06:29.540Z,99600.16
2022-09-26T13:09:05.027Z,99599.53
2022-09-26T13:11:40.345Z,99591.22
2022-09-26T13:14:36.259Z,99585.91
2022-09-26T13:17:10.231Z,99585.81
2022-09-26T13:19:42.298Z,99585.47
2022-09-26T13:22:29.469Z,99583.09
2022-09-26T13:25:01.137Z,99584.75
2022-09-26T13:27:34.481Z,99573.75
2022-09-26T13:30:05.085Z,99569.66
2022-09-26T13:32:36.904Z,99567.16
2022-09-26T13:35:13.902Z,99564.78
2022-09-26T13:37:48.022Z,99557.16
2022-09-26T13:40:29.838Z,99566.31
2022-09-26T13:43:09.569Z,99562.28
2022-09-26T13:45:49.299Z,99558.56
2022-09-26T13:48:22.216Z,99557.50
2022-09-26T13:50:56.189Z,99550.91
2022-09-26T13:53:28.881Z,99544.28
2022-09-26T13:56:48.447Z,99551.44
2022-09-26T13:59:34.528Z,99544.63
2022-09-26T14:02:19.510Z,99539.19
2022-09-26T14:04:48.080Z,99537.34
2022-09-26T14:07:50.590Z,99542.78
2022-09-26T14:10:35.560Z,99538.19
2022-09-26T14:13:19.112Z,99525.69
2022-09-26T14:16:01.373Z,99518.88
2022-09-26T14:18:47.185Z,99527.50
2022-09-26T14:21:23.812Z,99514.81
2022-09-26T14:24:42.808Z,99511.56
2022-09-26T14:27:29.342Z,99507.84
2022-09-26T14:30:01.717Z,99504.44
2022-09-26T14:32:32.911Z,99501.06
2022-09-26T14:35:01.871Z,99489.19
2022-09-26T14:37:34.720Z,99489.38
2022-09-26T14:40:19.408Z,99480.91
2022-09-26T14:42:54.716Z,99479.22
2022-09-26T14:45:26.486Z,99474.28
2022-09-26T14:48:01.411Z,99467.84
2022-09-26T14:50:35.608Z,99469.19
2022-09-26T14:53:11.465Z,99461.78
2022-09-26T14:55:54.702Z,99449.75
2022-09-26T14:58:32.066Z,99449.03
2022-09-26T15:01:03.525Z,99450.22
2022-09-26T15:03:31.898Z,99443.16
2022-09-26T15:06:00.515Z,99451.28
2022-09-26T15:08:30.226Z,99436.53
2022-09-26T15:11:00.774Z,99440.09
2022-09-26T15:13:34.280Z,99429.91
2022-09-26T15:16:22.908Z,99426.38
2022-09-26T15:18:53.450Z,99435.03
2022-09-26T15:21:27.562Z,99428.41
2022-09-26T15:23:56.766Z,99409.44
2022-09-26T15:26:28.131Z,99418.75
2022-09-26T15:28:57.689Z,99412.69
2022-09-26T15:31:30.593Z,99406.25
2022-09-26T15:34:04.380Z,99404.22
2022-09-26T15:36:34.258Z,99404.53
2022-09-26T15:39:03.228Z,99399.47
2022-09-26T15:41:49.985Z,99395.56
2022-09-26T15:44:23.765Z,99396.75
2022-09-26T15:46:52.397Z,99400.31
2022-09-26T15:49:22.253Z,99393.38
2022-09-26T15:51:53.492Z,99392.84
2022-09-26T15:54:26.307Z,99390.81
2022-09-26T15:56:58.823Z,99386.75
2022-09-26T15:59:31.607Z,99383.88
2022-09-26T16:02:01.297Z,99379.16
2022-09-26T16:04:30.252Z,99381.03
2022-09-26T16:06:59.939Z,99377.78
2022-09-26T16:09:33.047Z,99367.81
2022-09-26T16:12:04.721Z,99371.19
2022-09-26T16:14:40.365Z,99371.84
2022-09-26T16:17:30.110Z,99375.94
2022-09-26T16:19:59.638Z,99375.09
2022-09-26T16:22:40.616Z,99367.47
2022-09-26T16:25:29.952Z,99368.00
2022-09-26T16:28:32.217Z,99365.78
2022-09-26T16:31:17.822Z,99362.25
2022-09-26T16:33:52.553Z,99359.53
2022-09-26T16:36:24.895Z,99349.03
2022-09-26T16:38:54.517Z,99351.03
2022-09-26T16:41:49.006Z,99357.50
2022-09-26T16:44:27.389Z,99343.75
2022-09-26T16:47:02.701Z,99346.13
2022-09-26T16:49:34.555Z,99337.50
2022-09-26T16:52:21.486Z,99338.34
2022-09-26T16:54:49.858Z,99343.78
2022-09-26T16:57:21.586Z,99340.06
2022-09-26T16:59:49.752Z,99345.63
2022-09-26T17:02:18.341Z,99343.63
2022-09-26T17:04:47.410Z,99333.78
2022-09-26T17:07:16.573Z,99341.06
2022-09-26T17:09:44.564Z,99329.56
2022-09-26T17:12:18.662Z,99337.16
2022-09-26T17:14:49.227Z,99324.66
2022-09-26T17:17:22.275Z,99323.09
2022-09-26T17:19:58.234Z,99323.28
2022-09-26T17:22:27.249Z,99321.09
2022-09-26T17:24:55.782Z,99325.31
2022-09-26T17:27:27.072Z,99319.72
2022-09-26T17:30:00.386Z,99319.91
2022-09-26T17:32:30.759Z,99321.94
2022-09-26T17:34:59.934Z,99323.28
2022-09-26T17:37:28.514Z,99314.63
2022-09-26T17:39:56.683Z,99315.34
2022-09-26T17:42:25.279Z,99321.09
2022-09-26T17:44:54.003Z,99309.56
2022-09-26T17:47:22.718Z,99309.56
2022-09-26T17:49:56.173Z,99309.22
2022-09-26T17:52:26.971Z,99303.78
2022-09-26T17:54:57.470Z,99302.13
2022-09-26T17:57:28.014Z,99307.00
2022-09-26T17:59:56.070Z,99308.03
2022-09-26T18:02:30.446Z,99303.78
2022-09-26T18:05:04.546Z,99296.69
2022-09-26T18:07:36.367Z,99285.53
2022-09-26T18:10:07.327Z,99280.44
2022-09-26T18:12:35.697Z,99280.59
2022-09-26T18:15:04.586Z,99284.00
2022-09-26T18:17:32.766Z,99278.75
2022-09-26T18:20:02.666Z,99269.78
2022-09-26T18:22:32.835Z,99283.66
2022-09-26T18:25:05.509Z,99276.03
2022-09-26T18:27:36.866Z,99275.88
2022-09-26T18:30:07.378Z,99279.09
2022-09-26T18:32:39.112Z,99279.44
2022-09-26T18:35:14.813Z,99267.91
2022-09-26T18:37:43.649Z,99276.38
2022-09-26T18:40:15.230Z,99278.25
2022-09-26T18:42:44.496Z,99263.88
2022-09-26T18:45:15.163Z,99263.69
2022-09-26T18:47:45.348Z,99276.56
2022-09-26T18:50:23.575Z,99272.16
2022-09-26T18:52:52.157Z,99268.59
2022-09-26T18:55:38.893Z,99267.78
2022-09-26T18:58:24.069Z,99276.06
2022-09-26T19:00:54.654Z,99268.25
2022-09-26T19:03:23.363Z,99264.03
2022-09-26T19:05:54.840Z,99258.94
2022-09-26T19:08:33.548Z,99253.06
2022-09-26T19:11:03.995Z,99261.50
2022-09-26T19:13:32.543Z,99257.94
2022-09-26T19:16:00.618Z,99263.19
2022-09-26T19:18:28.588Z,99256.94
2022-09-26T19:20:57.982Z,99264.88
2022-09-26T19:23:27.614Z,99259.47
2022-09-26T19:25:55.662Z,99253.06
2022-09-26T19:28:26.311Z,99260.66
2022-09-26T19:30:54.357Z,99251.53
2022-09-26T19:33:22.677Z,99250.69
2022-09-26T19:35:50.607Z,99240.00
2022-09-26T19:38:24.087Z,99251.53
2022-09-26T19:40:53.778Z,99246.47
2022-09-26T19:43:22.690Z,99248.97
2022-09-26T19:45:53.730Z,99243.41
2022-09-26T19:48:23.846Z,99244.09
2022-09-26T19:50:52.631Z,99236.31
2022-09-26T19:53:23.745Z,99236.81
2022-09-26T19:55:51.787Z,99240.84
2022-09-26T19:58:20.791Z,99226.34
2022-09-26T20:00:51.269Z,99226.34
2022-09-26T20:03:20.905Z,99231.75
2022-09-26T20:05:50.060Z,99229.38
2022-09-26T20:08:22.185Z,99228.19
2022-09-26T20:10:51.925Z,99222.09
2022-09-26T20:13:20.322Z,99220.41
2022-09-26T20:15:48.901Z,99216.50
2022-09-26T20:18:20.704Z,99209.41
2022-09-26T20:20:51.830Z,99211.28
2022-09-26T20:23:22.682Z,99219.22
2022-09-26T20:25:53.267Z,99211.94
2022-09-26T20:28:21.246Z,99209.06
2022-09-26T20:30:56.767Z,99210.59
2022-09-26T20:33:26.308Z,99197.22
2022-09-26T20:36:00.261Z,99203.16
2022-09-26T20:38:33.718Z,99204.00
2022-09-26T20:41:12.047Z,99198.59
2022-09-26T20:43:41.039Z,99198.75
2022-09-26T20:46:10.256Z,99193.84
2022-09-26T20:48:38.573Z,99189.09
2022-09-26T20:51:08.547Z,99177.94
2022-09-26T20:53:36.758Z,99176.22
2022-09-26T20:56:10.048Z,99182.16
2022-09-26T20:58:37.981Z,99174.88
2022-09-26T21:01:06.052Z,99176.22
2022-09-26T21:03:34.091Z,99173.38
2022-09-26T21:06:02.026Z,99164.38
2022-09-26T21:08:31.370Z,99167.94
2022-09-26T21:10:59.748Z,99168.81
2022-09-26T21:13:29.124Z,99166.94
2022-09-26T21:15:57.058Z,99160.84
2022-09-26T21:18:26.605Z,99154.41
2022-09-26T21:20:55.332Z,99161.69
2022-09-26T21:23:24.189Z,99157.78
2022-09-26T21:25:52.120Z,99155.25
2022-09-26T21:28:26.308Z,99155.25
2022-09-26T21:30:56.401Z,99152.38
2022-09-26T21:33:24.554Z,99155.06
2022-09-26T21:35:52.842Z,99145.75
2022-09-26T21:38:21.917Z,99151.50
2022-09-26T21:40:52.830Z,99145.75
2022-09-26T21:43:22.893Z,99146.09
2022-09-26T21:45:50.894Z,99146.78
2022-09-26T21:48:20.242Z,99151.50
2022-09-26T21:50:57.386Z,99154.06
2022-09-26T21:53:28.689Z,99145.28
2022-09-26T21:56:02.564Z,99135.59
2022-09-26T21:58:38.086Z,99140.69
2022-09-26T22:01:06.358Z,99135.63
2022-09-26T22:03:35.904Z,99124.78
2022-09-26T22:06:07.384Z,99129.03
2022-09-26T22:08:35.742Z,99126.31
2022-09-26T22:11:03.845Z,99120.22
2022-09-26T22:13:33.140Z,99122.94
2022-09-26T22:16:06.225Z,99119.88
2022-09-26T22:18:36.746Z,99118.22
2022-09-26T22:21:05.095Z,99119.03
2022-09-26T22:23:33.499Z,99116.66
2022-09-26T22:26:01.995Z,99113.94
2022-09-26T22:28:30.321Z,99109.38
2022-09-26T22:31:01.819Z,99108.38
2022-09-26T22:33:30.226Z,99104.81
2022-09-26T22:35:59.684Z,99102.97
2022-09-26T22:38:28.056Z,99103.13
2022-09-26T22:40:57.155Z,99097.00
2022-09-26T22:43:25.481Z,99096.16
2022-09-26T22:45:54.289Z,99096.16
2022-09-26T22:48:22.270Z,99088.75
2022-09-26T22:50:50.246Z,99093.16
2022-09-26T22:53:19.604Z,99091.81
2022-09-26T22:55:54.755Z,99080.66
2022-09-26T22:58:23.406Z,99081.16
2022-09-26T23:00:51.372Z,99082.00
2022-09-26T23:03:19.663Z,99074.41
2022-09-26T23:05:48.481Z,99075.91
2022-09-26T23:08:16.437Z,99076.59
2022-09-26T23:10:51.308Z,99064.75
2022-09-26T23:13:19.378Z,99073.88
2022-09-26T23:15:47.555Z,99068.47
2022-09-26T23:18:15.942Z,99063.94
2022-09-26T23:20:44.862Z,99059.16
2022-09-26T23:23:14.336Z,99058.19
2022-09-26T23:25:46.935Z,99055.50
2022-09-26T23:28:16.753Z,99057.66
2022-09-26T23:30:45.422Z,99046.38
2022-09-26T23:33:13.370Z,99043.16
2022-09-26T23:35:41.367Z,99041.78
2022-09-26T23:38:09.429Z,99041.63
2022-09-26T23:40:38.645Z,99030.78
2022-09-26T23:43:06.622Z,99025.72
2022-09-26T23:45:36.122Z,99029.75
2022-09-26T23:48:04.205Z,99035.03
2022-09-26T23:50:32.188Z,99025.94
2022-09-26T23:53:04.389Z,99026.25
2022-09-26T23:55:33.910Z,99020.53
2022-09-26T23:58:01.847Z,99019.09
